createdAt,value
2023-04-01T00:01:17.817Z,99081.61
2023-04-01T00:06:23.643Z,99081.96
2023-04-01T00:11:29.128Z,99089.06
2023-04-01T00:16:34.940Z,99092.51
2023-04-01T00:21:41.383Z,99090.77
2023-04-01T00:26:48.731Z,99102.25
2023-04-01T00:31:54.564Z,99095.73
2023-04-01T00:37:00.099Z,99091.45
2023-04-01T00:42:07.314Z,99094.67
2023-04-01T00:47:12.948Z,99093.15
2023-04-01T00:52:21.460Z,99094.84
2023-04-01T00:57:36.058Z,99099.98
2023-04-01T01:02:43.778Z,99101.77
2023-04-01T01:08:10.981Z,99101.81
2023-04-01T01:13:19.545Z,99105.23
2023-04-01T01:18:31.101Z,99116.61
2023-04-01T01:24:08.350Z,99113.92
2023-04-01T01:29:33.321Z,99118.66
2023-04-01T01:34:41.867Z,99131.19
2023-04-01T01:39:50.482Z,99139.87
2023-04-01T01:44:58.588Z,99140.24
2023-04-01T01:50:06.506Z,99142.58
2023-04-01T01:55:36.332Z,99147.08
2023-04-01T02:00:45.350Z,99159.80
2023-04-01T02:05:54.181Z,99153.27
2023-04-01T02:11:23.670Z,99152.36
2023-04-01T02:16:35.873Z,99160.86
2023-04-01T02:21:44.319Z,99168.81
2023-04-01T02:26:51.575Z,99171.02
2023-04-01T02:31:58.199Z,99170.41
2023-04-01T02:37:04.820Z,99174.74
2023-04-01T02:42:10.443Z,99180.56
2023-04-01T02:47:16.073Z,99185.75
2023-04-01T02:52:21.640Z,99191.88
2023-04-01T02:57:27.933Z,99202.27
2023-04-01T03:02:33.637Z,99202.64
2023-04-01T03:07:39.284Z,99217.30
2023-04-01T03:12:44.779Z,99214.59
2023-04-01T03:17:50.877Z,99219.16
2023-04-01T03:22:56.591Z,99227.80
2023-04-01T03:28:02.267Z,99231.42
2023-04-01T03:33:08.285Z,99229.13
2023-04-01T03:38:14.010Z,99237.13
2023-04-01T03:43:19.853Z,99242.23
2023-04-01T03:48:26.664Z,99245.47
2023-04-01T03:53:32.377Z,99252.23
2023-04-01T03:58:40.210Z,99257.55
2023-04-01T04:03:46.995Z,99259.28
2023-04-01T04:08:52.829Z,99270.48
2023-04-01T04:13:58.653Z,99279.61
2023-04-01T04:19:05.668Z,99293.33
2023-04-01T04:24:12.163Z,99296.56
2023-04-01T04:29:19.281Z,99299.45
2023-04-01T04:34:25.050Z,99307.91
2023-04-01T04:39:31.349Z,99314.13
2023-04-01T04:44:36.932Z,99316.72
2023-04-01T04:49:42.575Z,99329.72
2023-04-01T04:54:48.325Z,99330.64
2023-04-01T04:59:53.898Z,99341.29
2023-04-01T05:05:13.106Z,99345.31
2023-04-01T05:10:18.984Z,99351.86
2023-04-01T05:15:25.725Z,99361.27
2023-04-01T05:20:31.464Z,99364.63
2023-04-01T05:25:39.762Z,99364.34
2023-04-01T05:30:46.377Z,99377.55
2023-04-01T05:36:17.823Z,99375.00
2023-04-01T05:41:23.867Z,99375.47
2023-04-01T05:46:29.706Z,99378.23
2023-04-01T05:51:36.873Z,99380.79
2023-04-01T05:56:43.463Z,99383.63
2023-04-01T06:01:49.096Z,99389.58
2023-04-01T06:06:54.904Z,99393.48
2023-04-01T06:12:12.531Z,99396.84
2023-04-01T06:17:22.832Z,99407.74
2023-04-01T06:22:44.340Z,99409.38
2023-04-01T06:28:20.919Z,99415.89
2023-04-01T06:33:35.422Z,99422.54
2023-04-01T06:38:59.191Z,99426.36
2023-04-01T06:44:28.763Z,99432.06
2023-04-01T06:50:19.717Z,99431.41
2023-04-01T06:55:52.230Z,99429.99
2023-04-01T07:01:05.137Z,99444.09
2023-04-01T07:06:19.898Z,99448.88
2023-04-01T07:11:33.151Z,99457.08
2023-04-01T07:16:56.360Z,99462.05
2023-04-01T07:22:32.659Z,99471.07
2023-04-01T07:27:44.965Z,99463.81
2023-04-01T07:33:05.804Z,99479.93
2023-04-01T07:38:26.797Z,99494.43
2023-04-01T07:43:38.928Z,99494.48
2023-04-01T07:48:54.955Z,99505.84
2023-04-01T07:54:03.770Z,99505.98
2023-04-01T07:59:30.228Z,99515.47
2023-04-01T08:04:42.151Z,99516.44
2023-04-01T08:09:51.989Z,99523.41
2023-04-01T08:15:24.637Z,99530.91
2023-04-01T08:20:49.761Z,99544.08
2023-04-01T08:26:01.122Z,99543.73
2023-04-01T08:31:17.377Z,99547.89
2023-04-01T08:36:29.056Z,99557.88
2023-04-01T08:42:02.962Z,99556.35
2023-04-01T08:47:18.851Z,99560.97
2023-04-01T08:52:39.059Z,99568.66
2023-04-01T08:58:03.746Z,99570.67
2023-04-01T09:03:33.069Z,99580.88
2023-04-01T09:08:43.322Z,99577.85
2023-04-01T09:13:54.632Z,99594.15
2023-04-01T09:19:15.016Z,99599.14
2023-04-01T09:24:32.590Z,99606.17
2023-04-01T09:29:57.053Z,99604.11
2023-04-01T09:35:24.337Z,99621.13
2023-04-01T09:40:38.516Z,99622.91
2023-04-01T09:45:51.214Z,99628.15
2023-04-01T09:51:03.074Z,99632.22
2023-04-01T09:56:17.917Z,99638.83
2023-04-01T10:01:49.404Z,99646.31
2023-04-01T10:07:28.166Z,99665.23
2023-04-01T10:12:59.693Z,99672.01
2023-04-01T10:18:24.546Z,99659.05
2023-04-01T10:23:48.053Z,99665.70
2023-04-01T10:29:04.300Z,99667.89
2023-04-01T10:34:35.704Z,99664.19
2023-04-01T10:40:02.537Z,99678.48
2023-04-01T10:45:33.711Z,99679.10
2023-04-01T10:50:51.407Z,99688.05
2023-04-01T10:56:35.623Z,99703.73
2023-04-01T11:02:03.994Z,99696.79
2023-04-01T11:07:31.847Z,99702.97
2023-04-01T11:12:56.040Z,99707.69
2023-04-01T11:18:10.470Z,99715.05
2023-04-01T11:23:35.548Z,99722.17
2023-04-01T11:29:00.670Z,99717.23
2023-04-01T11:34:22.200Z,99737.00
2023-04-01T11:39:33.670Z,99744.70
2023-04-01T11:45:20.107Z,99743.48
2023-04-01T11:50:49.355Z,99746.12
2023-04-01T11:56:21.930Z,99757.16
2023-04-01T12:01:30.541Z,99759.99
2023-04-01T12:06:44.935Z,99767.91
2023-04-01T12:12:11.974Z,99774.66
2023-04-01T12:17:41.553Z,99774.78
2023-04-01T12:23:23.338Z,99783.61
2023-04-01T12:28:49.704Z,99780.11
2023-04-01T12:34:04.113Z,99791.27
2023-04-01T12:39:15.439Z,99806.87
2023-04-01T12:44:38.547Z,99806.12
2023-04-01T12:49:56.196Z,99814.19
2023-04-01T12:55:10.275Z,99826.83
2023-04-01T13:00:47.380Z,99827.45
2023-04-01T13:06:21.803Z,99825.68
2023-04-01T13:11:40.119Z,99839.62
2023-04-01T13:17:06.911Z,99818.55
2023-04-01T13:22:23.612Z,99851.31
2023-04-01T13:27:32.172Z,99859.41
2023-04-01T13:32:44.114Z,99864.30
2023-04-01T13:37:55.786Z,99874.55
2023-04-01T13:43:16.530Z,99892.52
2023-04-01T13:48:25.096Z,99898.22
2023-04-01T13:53:33.756Z,99904.36
2023-04-01T13:58:42.266Z,99898.66
2023-04-01T14:04:14.666Z,99905.30
2023-04-01T14:09:38.152Z,99917.00
2023-04-01T14:15:10.805Z,99924.70
2023-04-01T14:20:37.626Z,99927.97
2023-04-01T14:25:55.528Z,99932.61
2023-04-01T14:31:29.935Z,99949.88
2023-04-01T14:36:47.376Z,99964.58
2023-04-01T14:42:24.784Z,99962.36
2023-04-01T14:47:36.335Z,99960.42
2023-04-01T14:52:44.649Z,99969.95
2023-04-01T14:58:05.652Z,99982.67
2023-04-01T15:03:23.261Z,99987.13
2023-04-01T15:08:40.790Z,99993.77
2023-04-01T15:13:50.527Z,100000.82
2023-04-01T15:19:27.916Z,100011.44
2023-04-01T15:24:42.233Z,100010.59
2023-04-01T15:30:16.342Z,100026.21
2023-04-01T15:35:52.384Z,100028.73
2023-04-01T15:41:20.108Z,100030.48
2023-04-01T15:46:43.832Z,100036.06
2023-04-01T15:52:07.033Z,100057.40
2023-04-01T15:57:32.257Z,100060.84
2023-04-01T16:02:52.857Z,100067.59
2023-04-01T16:08:01.417Z,100069.93
2023-04-01T16:13:18.963Z,100086.86
2023-04-01T16:18:50.194Z,100093.03
2023-04-01T16:24:05.849Z,100111.58
2023-04-01T16:29:14.337Z,100125.32
2023-04-01T16:34:42.195Z,100128.61
2023-04-01T16:39:53.534Z,100138.98
2023-04-01T16:45:11.107Z,100145.39
2023-04-01T16:50:26.114Z,100157.48
2023-04-01T16:55:58.549Z,100163.91
2023-04-01T17:01:09.778Z,100169.42
2023-04-01T17:06:34.737Z,100185.22
2023-04-01T17:11:52.382Z,100194.52
2023-04-01T17:17:12.796Z,100205.20
2023-04-01T17:22:30.643Z,100227.02
2023-04-01T17:27:49.565Z,100219.91
2023-04-01T17:33:03.774Z,100238.48
2023-04-01T17:38:15.267Z,100250.28
2023-04-01T17:43:36.285Z,100250.77
2023-04-01T17:48:47.652Z,100264.02
2023-04-01T17:54:02.519Z,100273.30
2023-04-01T17:59:19.913Z,100283.12
2023-04-01T18:04:40.526Z,100278.88
2023-04-01T18:09:49.429Z,100301.60
2023-04-01T18:14:57.948Z,100310.81
2023-04-01T18:20:15.473Z,100319.64
2023-04-01T18:25:24.029Z,100331.70
2023-04-01T18:30:32.838Z,100342.19
2023-04-01T18:35:53.695Z,100345.01
2023-04-01T18:41:36.011Z,100363.80
2023-04-01T18:47:07.005Z,100379.45
2023-04-01T18:52:38.277Z,100396.63
2023-04-01T18:57:58.455Z,100411.55
2023-04-01T19:03:25.297Z,100405.66
2023-04-01T19:08:37.569Z,100414.26
2023-04-01T19:14:10.244Z,100415.77
2023-04-01T19:19:35.158Z,100409.53
2023-04-01T19:25:15.083Z,100425.39
2023-04-01T19:30:44.048Z,100433.44
2023-04-01T19:36:14.877Z,100440.07
2023-04-01T19:41:29.524Z,100446.14
2023-04-01T19:46:50.857Z,100454.06
2023-04-01T19:52:05.539Z,100450.09
2023-04-01T19:57:22.855Z,100470.44
2023-04-01T20:02:34.473Z,100483.88
2023-04-01T20:07:43.230Z,100495.59
2023-04-01T20:13:09.989Z,100504.05
2023-04-01T20:18:24.546Z,100509.64
2023-04-01T20:23:38.625Z,100519.88
2023-04-01T20:28:52.860Z,100529.41
2023-04-01T20:34:19.706Z,100536.95
2023-04-01T20:39:49.530Z,100550.20
2023-04-01T20:44:57.997Z,100566.20
2023-04-01T20:50:15.896Z,100563.96
2023-04-01T20:55:30.686Z,100569.83
2023-04-01T21:01:07.233Z,100576.86
2023-04-01T21:06:19.171Z,100576.89
2023-04-01T21:11:28.750Z,100573.55
2023-04-01T21:16:43.137Z,100576.86
2023-04-01T21:22:02.000Z,100581.12
2023-04-01T21:27:28.972Z,100588.70
2023-04-01T21:33:02.750Z,100594.42
2023-04-01T21:38:29.527Z,100607.83
2023-04-01T21:43:44.356Z,100608.97
2023-04-01T21:48:58.441Z,100617.44
2023-04-01T21:54:40.671Z,100622.11
2023-04-01T21:59:52.260Z,100628.88
2023-04-01T22:05:20.585Z,100637.50
2023-04-01T22:10:37.921Z,100645.75
2023-04-01T22:15:52.045Z,100655.38
2023-04-01T22:21:05.238Z,100661.04
2023-04-01T22:26:31.137Z,100668.13
2023-04-01T22:31:42.245Z,100669.75
2023-04-01T22:36:59.527Z,100679.12
2023-04-01T22:42:23.591Z,100682.73
2023-04-01T22:47:34.840Z,100695.70
2023-04-01T22:52:45.878Z,100687.75
2023-04-01T22:58:00.748Z,100697.63
2023-04-01T23:03:27.944Z,100700.89
2023-04-01T23:08:54.532Z,100713.74
2023-04-01T23:14:11.802Z,100707.71
2023-04-01T23:19:36.237Z,100722.08
2023-04-01T23:24:45.269Z,100732.63
2023-04-01T23:29:50.982Z,100734.12
2023-04-01T23:35:03.099Z,100749.64
2023-04-01T23:40:11.790Z,100749.56
2023-04-01T23:45:21.854Z,100752.67
2023-04-01T23:50:28.656Z,100767.41
2023-04-01T23:55:35.904Z,100771.28
